Time;durP1;ratioP1;P1;durP2;ratioP2;P2;SDS_P1;SDS_P2;PMS_P1;PMS_P2;Temp;Humidity;BMP_temperature;BMP_pressure;BME280_temperature;BME280_humidity;BME280_pressure;Samples;Min_cycle;Max_cycle;Signal;HPM_P1;HPM_P2
2023/09/15 07:01:27;;;;;;;0.50;0.50;;;18.20;99.90;22.80;101585.00;;;;6182274;22;1476024;-67
2023/09/15 07:04:03;;;;;;;1.90;1.77;;;19.00;99.90;21.80;101566.00;;;;6278458;22;20145;-67
2023/09/15 07:06:32;;;;;;;0.28;0.28;;;19.00;99.90;22.70;101595.00;;;;6276810;22;20195;-67
2023/09/15 07:09:07;;;;;;;0.22;0.22;;;19.40;99.90;23.20;101588.00;;;;6250922;22;20149;-67
2023/09/15 07:11:38;;;;;;;1.42;1.40;;;19.60;99.90;23.50;101594.00;;;;6251348;22;20154;-67
2023/09/15 07:14:10;;;;;;;0.68;0.68;;;20.20;99.90;24.60;101598.00;;;;6276274;22;20581;-67
2023/09/15 07:16:43;;;;;;;0.10;0.10;;;20.70;99.90;26.00;101645.00;;;;6277901;22;20187;-67
2023/09/15 07:19:12;;;;;;;0.20;0.20;;;21.70;99.90;27.10;101637.00;;;;6277662;22;20142;-67
2023/09/15 07:21:44;;;;;;;0.52;0.52;;;22.30;99.90;26.50;101689.00;;;;6249924;22;20153;-67
2023/09/15 07:24:11;;;;;;;0.10;0.10;;;22.50;99.90;27.00;101697.00;;;;6250937;22;20561;-67
2023/09/15 07:26:37;;;;;;;0.10;0.10;;;22.90;99.90;29.00;101681.00;;;;6276178;22;20148;-68
2023/09/15 07:29:05;;;;;;;0.10;0.10;;;23.80;99.90;28.40;101700.00;;;;6275989;22;20164;-68
2023/09/15 07:31:36;;;;;;;0.10;0.10;;;23.80;99.90;27.30;101716.00;;;;6276235;22;20213;-67
2023/09/15 07:34:08;;;;;;;0.35;0.35;;;23.40;99.90;27.20;101719.00;;;;6276692;22;20137;-67
2023/09/15 07:36:34;;;;;;;0.20;0.20;;;23.10;99.90;27.60;101706.00;;;;6276701;22;20225;-68
2023/09/15 07:39:20;;;;;;;1.23;0.90;;;23.00;99.90;29.30;101659.00;;;;6274682;22;20137;-68
2023/09/15 07:41:52;;;;;;;0.40;0.40;;;24.20;99.90;29.70;101671.00;;;;6276278;22;20195;-68
2023/09/15 07:44:20;;;;;;;1.00;1.00;;;24.70;99.90;30.40;101664.00;;;;6278227;22;20145;-68
2023/09/15 07:46:52;;;;;;;0.68;0.68;;;25.30;99.90;29.50;101669.00;;;;6250259;22;20161;-69
2023/09/15 07:49:18;;;;;;;0.85;0.85;;;25.30;99.90;30.00;101669.00;;;;6276838;22;20141;-67
2023/09/15 07:51:50;;;;;;;2.70;2.50;;;25.10;99.90;28.50;101671.00;;;;6277565;22;20471;-68
2023/09/15 07:54:16;;;;;;;0.40;0.40;;;24.70;99.90;29.80;101672.00;;;;6275159;22;20141;-68
2023/09/15 07:56:48;;;;;;;0.10;0.10;;;24.90;99.90;29.00;101682.00;;;;6276518;22;20152;-72
2023/09/15 07:59:16;;;;;;;0.40;0.40;;;25.00;99.90;27.80;101699.00;;;;6250641;22;20153;-69
2023/09/15 08:01:45;;;;;;;0.10;0.10;;;24.10;99.90;29.00;101680.00;;;;6249467;22;20165;-71
2023/09/15 08:04:12;;;;;;;1.00;1.00;;;24.40;99.90;28.30;101696.00;;;;6275930;22;20481;-69
2023/09/15 08:06:38;;;;;;;0.60;0.60;;;24.80;99.90;26.60;101710.00;;;;6276594;22;20149;-68
2023/09/15 08:09:10;;;;;;;0.80;0.32;;;23.70;99.90;27.40;101707.00;;;;6276765;22;20169;-68
2023/09/15 08:11:38;;;;;;;0.88;0.88;;;23.60;99.90;28.40;101704.00;;;;6275832;22;20156;-68
2023/09/15 08:14:04;;;;;;;0.20;0.20;;;24.30;99.90;29.00;101701.00;;;;6277824;22;20456;-69
2023/09/15 08:16:30;;;;;;;0.10;0.10;;;24.50;99.90;28.40;101706.00;;;;6276254;22;20148;-68
2023/09/15 08:18:59;;;;;;;0.10;0.10;;;24.60;99.90;28.90;101697.00;;;;6277923;22;20166;-68
2023/09/15 08:21:25;;;;;;;0.10;0.10;;;24.70;99.90;28.60;101701.00;;;;6251334;22;20167;-66
2023/09/15 08:23:51;;;;;;;1.67;0.60;;;24.70;99.90;30.20;101681.00;;;;6277956;22;20145;-70
2023/09/15 08:26:17;;;;;;;0.10;0.10;;;25.20;99.90;30.30;101674.00;;;;6277880;22;20235;-69
2023/09/15 08:28:43;;;;;;;0.10;0.10;;;25.90;99.90;30.90;101658.00;;;;6277381;22;20491;-68
2023/09/15 08:31:10;;;;;;;0.20;0.20;;;26.40;99.90;30.60;101653.00;;;;6274611;22;20153;-67
2023/09/15 08:33:36;;;;;;;0.50;0.50;;;26.60;99.90;30.30;101639.00;;;;6277257;22;20180;-67
2023/09/15 08:36:05;;;;;;;0.10;0.10;;;26.00;99.90;28.40;101706.00;;;;6250450;22;20157;-67
2023/09/15 08:38:32;;;;;;;0.70;0.43;;;25.20;99.90;29.60;101689.00;;;;6249931;22;20161;-68
2023/09/15 08:41:34;;;;;;;0.20;0.20;;;25.50;99.90;28.20;101702.00;;;;6276377;22;20152;-67
2023/09/15 08:44:01;;;;;;;0.20;0.20;;;24.80;99.90;28.10;101679.00;;;;6275679;22;20163;-67
2023/09/15 08:46:31;;;;;;;0.30;0.30;;;24.50;99.90;29.30;101687.00;;;;6275954;22;20578;-71
2023/09/15 08:48:58;;;;;;;0.10;0.10;;;24.90;99.90;30.70;101653.00;;;;6276087;22;20144;-67
2023/09/15 08:51:29;;;;;;;0.15;0.15;;;25.80;99.90;29.30;101670.00;;;;6275450;22;20141;-67
2023/09/15 08:54:01;;;;;;;0.40;0.40;;;25.80;99.90;30.60;101633.00;;;;6250411;22;20188;-67
2023/09/15 08:56:28;;;;;;;0.60;0.22;;;25.90;99.90;31.30;101631.00;;;;6276034;22;20220;-69
2023/09/15 08:58:54;;;;;;;0.38;0.38;;;26.60;99.90;30.00;101658.00;;;;6274412;22;20169;-67
2023/09/15 09:01:28;;;;;;;0.17;0.17;;;26.40;99.90;30.60;101652.00;;;;6275841;22;20192;-68
2023/09/15 09:03:54;;;;;;;0.30;0.30;;;26.20;99.90;31.30;101616.00;;;;6275172;22;20207;-67
2023/09/15 09:06:32;;;;;;;0.10;0.10;;;26.60;99.90;31.40;101631.00;;;;6249648;22;20219;-67
2023/09/15 09:08:59;;;;;;;0.10;0.10;;;26.80;99.90;29.30;101668.00;;;;6249345;22;20163;-68
2023/09/15 09:11:25;;;;;;;0.20;0.20;;;26.30;99.90;31.00;101641.00;;;;6275658;22;20198;-68
2023/09/15 09:13:53;;;;;;;0.10;0.10;;;26.40;99.90;30.20;101658.00;;;;6274746;22;20604;-68
2023/09/15 09:16:20;;;;;;;0.30;0.30;;;26.40;99.90;28.80;101690.00;;;;6249916;22;20161;-67
2023/09/15 09:19:03;;;;;;;0.30;0.30;;;25.60;99.90;30.70;101655.00;;;;6249773;22;20492;-68
2023/09/15 09:21:32;;;;;;;0.10;0.10;;;25.90;99.90;31.00;101650.00;;;;6250299;22;20182;-67
2023/09/15 09:23:58;;;;;;;0.10;0.10;;;26.60;99.90;30.70;101654.00;;;;6275182;22;20256;-68
2023/09/15 09:26:24;;;;;;;1.73;1.02;;;26.40;99.90;28.30;101690.00;;;;6250237;22;20164;-67
2023/09/15 09:28:56;;;;;;;0.10;0.10;;;26.20;99.90;28.30;101694.00;;;;6275021;22;20232;-66
2023/09/15 09:31:25;;;;;;;0.10;0.10;;;25.60;99.90;30.40;101673.00;;;;6275245;22;20149;-67
2023/09/15 09:33:55;;;;;;;0.20;0.20;;;25.90;99.90;29.70;101678.00;;;;6275592;22;20598;-68
2023/09/15 09:36:24;;;;;;;0.10;0.10;;;26.20;99.90;31.70;101652.00;;;;6250724;22;20149;-67
2023/09/15 09:38:59;;;;;;;2.60;1.23;;;26.70;99.90;28.50;101684.00;;;;6275865;22;20144;-69
2023/09/15 09:41:28;;;;;;;0.65;0.65;;;26.20;99.90;30.50;101652.00;;;;6250768;22;20577;-68
2023/09/15 09:44:05;;;;;;;1.65;1.55;;;26.10;99.90;30.10;101659.00;;;;6275508;22;20154;-67
2023/09/15 09:46:45;;;;;;;0.20;0.20;;;26.50;99.90;30.80;101626.00;;;;6250651;22;20224;-69
2023/09/15 09:49:13;;;;;;;0.10;0.10;;;26.50;99.90;31.60;101633.00;;;;6248104;22;20207;-67
2023/09/15 09:51:41;;;;;;;0.75;0.75;;;27.10;99.90;29.90;101640.00;;;;6274475;22;20137;-64
2023/09/15 09:54:07;;;;;;;1.25;1.23;;;27.00;99.90;31.00;101627.00;;;;6274504;22;20220;-65
2023/09/15 09:56:34;;;;;;;0.20;0.20;;;26.70;99.90;31.50;101619.00;;;;6274409;22;20172;-66
2023/09/15 09:59:12;;;;;;;0.10;0.10;;;27.00;99.90;31.50;101619.00;;;;6276186;22;20153;-65
2023/09/15 10:01:44;;;;;;;0.10;0.10;;;27.50;99.90;32.30;101605.00;;;;6275484;22;20169;-68
2023/09/15 10:04:10;;;;;;;0.10;0.10;;;27.60;99.90;31.70;101614.00;;;;6248671;22;20606;-66
2023/09/15 10:06:40;;;;;;;0.75;0.30;;;27.60;99.90;29.10;101658.00;;;;6276395;22;20164;-67
2023/09/15 10:09:06;;;;;;;1.88;0.52;;;26.90;99.90;31.00;101643.00;;;;6274112;22;20602;-67
2023/09/15 10:11:34;;;;;;;0.57;0.57;;;26.70;99.90;31.30;101623.00;;;;6274790;22;20141;-67
2023/09/15 10:14:04;;;;;;;0.10;0.10;;;27.00;99.90;31.80;101595.00;;;;6274989;22;20560;-66
2023/09/15 10:16:40;;;;;;;0.65;0.65;;;27.30;99.90;31.20;101617.00;;;;6249008;22;20180;-68
2023/09/15 10:19:07;;;;;;;0.10;0.10;;;27.10;99.90;31.50;101595.00;;;;6274697;22;20137;-68
2023/09/15 10:33:31;;;;;;;0.10;0.10;;;25.60;99.90;30.60;101643.00;;;;5070017;28;20559;-66
2023/09/15 10:36:04;;;;;;;0.10;0.10;;;26.20;99.90;30.60;101615.00;;;;5050098;28;20559;-66
2023/09/15 10:38:37;;;;;;;0.32;0.32;;;26.70;99.90;29.80;101617.00;;;;5050108;28;20644;-67
2023/09/15 10:41:24;;;;;;;0.43;0.43;;;26.60;99.90;29.90;101590.00;;;;5047601;28;20236;-66
2023/09/15 10:44:07;;;;;;;0.10;0.10;;;26.10;99.90;31.50;101565.00;;;;5031896;28;20244;-67
2023/09/15 10:46:42;;;;;;;0.10;0.10;;;26.90;99.90;32.20;101550.00;;;;5045898;28;20177;-66
2023/09/15 10:49:19;;;;;;;0.65;0.55;;;27.60;99.90;32.90;101535.00;;;;5048397;28;20182;-64
2023/09/15 10:51:59;;;;;;;0.20;0.20;;;28.20;99.90;33.00;101539.00;;;;5048168;28;20205;-64
2023/09/15 10:54:35;;;;;;;0.68;0.68;;;28.60;99.90;33.10;101537.00;;;;5049638;28;20243;-64
2023/09/15 10:57:08;;;;;;;0.90;0.90;;;28.80;99.90;32.70;101552.00;;;;5048926;28;20205;-64
2023/09/15 10:59:39;;;;;;;0.30;0.30;;;28.80;99.90;31.20;101579.00;;;;5047892;28;20210;-64
2023/09/15 11:02:05;;;;;;;0.20;0.20;;;27.90;99.90;31.20;101594.00;;;;5048598;28;20190;-65
2023/09/15 11:04:37;;;;;;;1.75;1.65;;;27.80;99.90;32.10;101587.00;;;;5031860;28;20233;-64
2023/09/15 11:07:11;;;;;;;0.35;0.35;;;27.70;99.90;31.70;101587.00;;;;5048653;28;20183;-65
2023/09/15 11:09:44;;;;;;;0.10;0.10;;;28.10;99.90;32.40;101583.00;;;;5046540;28;20187;-65
2023/09/15 11:12:33;;;;;;;0.10;0.10;;;27.90;99.90;32.80;101569.00;;;;5047885;28;20312;-64
2023/09/15 11:15:06;;;;;;;0.40;0.40;;;28.00;99.90;31.80;101590.00;;;;5026443;28;20285;-64
2023/09/15 11:17:35;;;;;;;0.10;0.10;;;27.80;99.90;31.70;101595.00;;;;5042631;28;20552;-65
2023/09/15 11:20:23;;;;;;;0.10;0.10;;;27.80;99.90;32.10;101584.00;;;;5047542;28;20247;-64
2023/09/15 11:23:18;;;;;;;0.20;0.20;;;28.00;99.90;32.30;101575.00;;;;5043215;28;20587;-65
2023/09/15 11:25:49;;;;;;;0.10;0.10;;;28.20;99.90;32.50;101573.00;;;;5045332;28;20187;-65
2023/09/15 11:28:35;;;;;;;0.43;0.43;;;28.20;99.90;31.70;101577.00;;;;5047332;28;20188;-64
2023/09/15 11:31:12;;;;;;;0.10;0.10;;;28.10;99.90;32.50;101579.00;;;;5041102;28;20221;-64
2023/09/15 11:33:48;;;;;;;0.82;0.77;;;28.00;99.90;32.30;101580.00;;;;5048033;28;20193;-65
2023/09/15 11:36:32;;;;;;;0.57;0.57;;;27.90;99.90;32.20;101578.00;;;;5048030;28;20196;-64
2023/09/15 11:39:11;;;;;;;0.10;0.10;;;28.00;99.90;31.40;101577.00;;;;5047614;28;20178;-64
2023/09/15 11:41:57;;;;;;;0.47;0.47;;;27.60;99.90;29.40;101609.00;;;;5048013;28;20186;-67
2023/09/15 11:44:51;;;;;;;0.10;0.10;;;27.10;99.90;30.90;101600.00;;;;5028527;28;20281;-67
2023/09/15 11:47:17;;;;;;;0.30;0.30;;;26.90;99.90;30.90;101591.00;;;;5065331;28;20186;-67
2023/09/15 11:50:08;;;;;;;0.10;0.10;;;26.90;99.90;31.10;101591.00;;;;5033229;28;20182;-67
2023/09/15 11:53:00;;;;;;;2.08;0.98;;;27.00;99.90;27.40;101623.00;;;;5026093;28;20316;-67
2023/09/15 11:56:01;;;;;;;0.10;0.10;;;25.90;99.90;29.90;101609.00;;;;5030150;28;20187;-67
2023/09/15 11:58:32;;;;;;;0.10;0.10;;;25.60;99.90;30.00;101598.00;;;;5033044;28;20654;-67
2023/09/15 12:01:01;;;;;;;0.10;0.10;;;25.80;99.90;29.50;101605.00;;;;5017444;28;20181;-67
2023/09/15 12:03:32;;;;;;;0.22;0.22;;;26.00;99.90;28.70;101603.00;;;;5017535;28;20191;-66
2023/09/15 12:06:01;;;;;;;1.10;1.10;;;25.10;99.90;30.60;101583.00;;;;5032437;28;20254;-67
2023/09/15 12:08:30;;;;;;;0.10;0.10;;;25.80;99.90;30.50;101581.00;;;;5031765;28;20610;-68
2023/09/15 12:10:57;;;;;;;0.10;0.10;;;26.00;99.90;30.20;101583.00;;;;5037317;28;20191;-67
2023/09/15 12:13:23;;;;;;;0.10;0.10;;;26.20;99.90;30.80;101567.00;;;;5034522;28;20754;-67
2023/09/15 12:15:48;;;;;;;0.10;0.10;;;26.40;99.90;31.30;101563.00;;;;5025181;28;20175;-67
2023/09/15 12:18:14;;;;;;;0.10;0.10;;;26.50;99.90;31.70;101553.00;;;;5033297;28;20545;-67
2023/09/15 12:20:46;;;;;;;0.10;0.10;;;26.70;99.90;31.90;101548.00;;;;5033810;28;20236;-67
2023/09/15 12:23:12;;;;;;;0.20;0.20;;;27.00;99.90;31.20;101551.00;;;;5014703;28;20171;-67
2023/09/15 12:25:43;;;;;;;0.30;0.30;;;26.80;99.90;30.90;101555.00;;;;5040605;28;20179;-67
2023/09/15 12:28:11;;;;;;;0.70;0.55;;;26.70;99.90;30.40;101545.00;;;;5040593;28;20226;-67
2023/09/15 12:30:44;;;;;;;0.85;0.85;;;26.40;99.90;28.90;101564.00;;;;5041008;28;20183;-67
2023/09/15 12:33:10;;;;;;;0.10;0.10;;;26.00;99.90;30.60;101544.00;;;;5042269;28;20214;-67
2023/09/15 12:35:39;;;;;;;0.40;0.40;;;26.00;99.90;29.60;101526.00;;;;5024531;28;20292;-67
2023/09/15 12:38:09;;;;;;;0.30;0.30;;;25.90;99.90;29.40;101529.00;;;;5041382;28;20708;-67
2023/09/15 12:40:38;;;;;;;0.30;0.30;;;25.80;99.90;30.30;101540.00;;;;5041738;28;20186;-67
2023/09/15 12:43:16;;;;;;;0.10;0.10;;;25.80;99.90;30.50;101529.00;;;;5036952;28;20281;-67
2023/09/15 12:45:45;;;;;;;0.30;0.30;;;26.00;99.90;27.80;101572.00;;;;5033481;28;20187;-67
2023/09/15 12:48:16;;;;;;;0.10;0.10;;;25.40;99.90;27.80;101568.00;;;;5032590;28;20201;-67
2023/09/15 12:50:42;;;;;;;0.10;0.10;;;24.70;99.90;29.10;101536.00;;;;5034493;28;20186;-67
2023/09/15 12:53:08;;;;;;;0.10;0.10;;;24.80;99.90;29.70;101529.00;;;;5032910;28;20207;-67
2023/09/15 12:55:34;;;;;;;0.10;0.10;;;25.30;99.90;30.20;101533.00;;;;5032357;28;20201;-67
2023/09/15 12:58:00;;;;;;;0.10;0.10;;;25.60;99.90;30.80;101514.00;;;;5034009;28;20274;-67
2023/09/15 13:00:35;;;;;;;0.10;0.10;;;25.90;99.90;29.60;101527.00;;;;5032233;28;20217;-67
2023/09/15 13:03:13;;;;;;;0.43;0.40;;;25.60;99.90;29.00;101510.00;;;;5031873;28;20194;-67
2023/09/15 13:05:44;;;;;;;0.10;0.10;;;25.50;99.90;29.10;101505.00;;;;5026794;28;20555;-67
2023/09/15 13:08:18;;;;;;;0.45;0.45;;;25.40;99.90;30.00;101515.00;;;;5016326;28;20183;-67
2023/09/15 13:10:53;;;;;;;2.28;0.95;;;25.60;99.90;29.50;101513.00;;;;5021705;28;20278;-67
2023/09/15 13:13:19;;;;;;;0.25;0.25;;;25.60;99.90;30.30;101506.00;;;;5057463;28;20206;-67
2023/09/15 13:16:10;;;;;;;0.68;0.63;;;25.80;99.90;28.40;101525.00;;;;5028790;28;20327;-67
2023/09/15 13:18:50;;;;;;;0.10;0.10;;;25.40;99.90;28.80;101534.00;;;;5032143;28;20656;-67
2023/09/15 13:21:22;;;;;;;0.10;0.10;;;25.00;99.90;29.30;101523.00;;;;5032161;28;20179;-67
2023/09/15 13:24:18;;;;;;;0.10;0.10;;;25.10;99.90;30.60;101501.00;;;;5033132;28;20328;-67
2023/09/15 13:26:55;;;;;;;0.10;0.10;;;25.70;99.90;29.50;101510.00;;;;5032083;28;20505;-67
2023/09/15 13:29:54;;;;;;;0.10;0.10;;;25.60;99.90;29.70;101512.00;;;;5032220;28;20356;-67
2023/09/15 13:32:48;;;;;;;0.10;0.10;;;25.60;99.90;30.30;101508.00;;;;5030173;28;20211;-67
2023/09/15 13:35:37;;;;;;;0.10;0.10;;;25.70;99.90;30.50;101498.00;;;;5024952;28;20207;-67
2023/09/15 13:38:31;;;;;;;0.10;0.10;;;26.00;99.90;30.30;101494.00;;;;5032235;28;20179;-67
2023/09/15 13:41:18;;;;;;;0.10;0.10;;;26.10;99.90;30.30;101501.00;;;;5021400;28;20641;-67
2023/09/15 13:44:07;;;;;;;0.10;0.10;;;26.00;99.90;29.60;101508.00;;;;5015368;28;20194;-67
2023/09/15 13:46:56;;;;;;;0.10;0.10;;;26.00;99.90;30.40;101504.00;;;;5029287;28;20190;-67
2023/09/15 13:49:45;;;;;;;0.10;0.10;;;26.10;99.90;30.20;101500.00;;;;5031925;28;20182;-67
2023/09/15 13:52:14;;;;;;;0.10;0.10;;;26.00;99.90;29.00;101510.00;;;;5024125;28;20195;-67
2023/09/15 13:55:09;;;;;;;0.10;0.10;;;25.80;99.90;30.20;101499.00;;;;5032493;28;20537;-67
2023/09/15 13:58:00;;;;;;;0.20;0.20;;;25.80;99.90;30.10;101494.00;;;;5031906;28;20206;-67
2023/09/15 14:00:59;;;;;;;0.10;0.10;;;25.80;99.90;28.70;101500.00;;;;5063515;28;20186;-67
2023/09/15 14:03:48;;;;;;;0.28;0.28;;;25.40;99.90;28.80;101504.00;;;;5031576;28;20723;-67
2023/09/15 14:06:34;;;;;;;0.10;0.10;;;25.00;99.90;28.90;101495.00;;;;5014510;28;20201;-67
2023/09/15 14:09:18;;;;;;;0.10;0.10;;;25.30;99.90;30.20;101480.00;;;;5031759;28;20660;-67
2023/09/15 14:12:02;;;;;;;1.00;0.52;;;25.70;99.90;29.10;101489.00;;;;5032743;28;20277;-70
2023/09/15 14:14:28;;;;;;;0.20;0.20;;;25.60;99.90;28.50;101498.00;;;;5023303;28;20241;-68
2023/09/15 14:17:01;;;;;;;1.17;0.57;;;25.20;99.90;28.80;101502.00;;;;5022324;28;20673;-68
2023/09/15 14:19:27;;;;;;;0.10;0.10;;;25.30;99.90;28.90;101486.00;;;;5022722;28;20187;-68
2023/09/15 14:21:56;;;;;;;0.35;0.35;;;25.10;99.90;29.30;101460.00;;;;5038076;28;20179;-68
2023/09/15 14:24:35;;;;;;;0.10;0.10;;;25.20;99.90;29.70;101467.00;;;;5031720;28;20183;-69
2023/09/15 14:27:03;;;;;;;0.50;0.50;;;25.40;99.90;30.50;101429.00;;;;5015637;28;20193;-69
2023/09/15 14:29:32;;;;;;;0.10;0.10;;;25.80;99.90;30.60;101448.00;;;;5031581;28;20182;-69
2023/09/15 14:32:18;;;;;;;0.22;0.22;;;25.90;99.90;30.10;101447.00;;;;5030936;28;20229;-70
2023/09/15 14:35:07;;;;;;;0.10;0.10;;;26.20;99.90;30.30;101447.00;;;;5032546;28;20536;-68
2023/09/15 14:37:55;;;;;;;0.20;0.20;;;26.10;99.90;29.40;101451.00;;;;5022113;28;20187;-69
2023/09/15 14:40:42;;;;;;;0.17;0.17;;;26.00;99.90;29.50;101441.00;;;;5011540;28;20180;-70
2023/09/15 14:43:22;;;;;;;0.85;0.20;;;25.80;99.90;30.00;101448.00;;;;5029177;28;20214;-73
2023/09/15 14:46:13;;;;;;;0.22;0.22;;;25.70;99.90;30.20;101418.00;;;;5015469;28;20231;-68
2023/09/15 14:48:49;;;;;;;0.50;0.50;;;26.00;99.90;28.40;101426.00;;;;5004128;28;20202;-69
2023/09/15 14:51:41;;;;;;;0.20;0.20;;;25.30;99.90;28.80;101452.00;;;;5043621;28;20191;-69
2023/09/15 14:54:07;;;;;;;0.50;0.50;;;25.00;99.90;28.40;101451.00;;;;5015152;28;20198;-72
2023/09/15 14:56:53;;;;;;;0.10;0.10;;;25.00;99.90;29.40;101435.00;;;;5027636;28;20190;-72
2023/09/15 14:59:43;;;;;;;1.25;0.68;;;25.20;99.90;28.90;101421.00;;;;5030855;28;20195;-74
2023/09/15 15:02:33;;;;;;;0.20;0.20;;;25.30;99.90;28.20;101449.00;;;;5024995;28;20241;-72
2023/09/15 15:05:28;;;;;;;0.50;0.50;;;24.60;99.90;28.70;101430.00;;;;5032076;28;20190;-73
2023/09/15 15:08:32;;;;;;;1.20;0.45;;;24.80;99.90;28.30;101445.00;;;;5010731;28;20598;-70
2023/09/15 15:11:26;;;;;;;0.68;0.68;;;24.80;99.90;28.80;101437.00;;;;5028558;28;20202;-70
2023/09/15 15:14:16;;;;;;;0.15;0.15;;;24.90;99.90;29.50;101420.00;;;;5013665;28;20248;-69
2023/09/15 15:17:23;;;;;;;0.10;0.10;;;25.20;99.90;29.50;101411.00;;;;5031017;28;20545;-69
2023/09/15 15:20:10;;;;;;;0.13;0.13;;;25.40;99.90;29.40;101419.00;;;;5031930;28;20198;-69
2023/09/15 15:23:00;;;;;;;0.50;0.50;;;25.30;99.90;29.60;101414.00;;;;5033161;28;20266;-69
2023/09/15 15:25:48;;;;;;;1.17;1.17;;;25.40;99.90;29.00;101428.00;;;;5036405;28;20190;-69
2023/09/15 15:28:17;;;;;;;0.22;0.22;;;25.10;99.90;29.30;101390.00;;;;5034665;28;20251;-69
2023/09/15 15:31:14;;;;;;;0.20;0.20;;;25.20;99.90;29.80;101404.00;;;;5034621;28;20259;-70
2023/09/15 15:34:00;;;;;;;0.25;0.25;;;25.20;99.90;29.00;101406.00;;;;5023159;28;20175;-69
2023/09/15 15:36:47;;;;;;;0.17;0.17;;;25.10;99.90;29.70;101403.00;;;;5035052;28;20187;-69
2023/09/15 15:39:38;;;;;;;0.10;0.10;;;25.20;99.90;29.30;101382.00;;;;5034622;28;20189;-69
2023/09/15 15:42:34;;;;;;;0.10;0.10;;;25.40;99.90;30.30;101384.00;;;;5033678;28;20190;-69
2023/09/15 15:45:00;;;;;;;0.55;0.55;;;25.40;99.90;30.00;101364.00;;;;5026833;28;20207;-70
2023/09/15 15:47:26;;;;;;;0.10;0.10;;;25.60;99.90;28.90;101405.00;;;;5035588;28;20179;-70
2023/09/15 15:49:55;;;;;;;0.25;0.25;;;25.20;99.90;28.60;101394.00;;;;5034226;28;20194;-70
2023/09/15 15:52:22;;;;;;;0.10;0.10;;;25.00;99.90;28.60;101416.00;;;;5050540;28;20236;-70
2023/09/15 15:54:51;;;;;;;1.23;0.90;;;24.70;99.90;28.20;101393.00;;;;5034251;28;20293;-70
2023/09/15 15:57:17;;;;;;;0.20;0.20;;;24.60;99.90;28.60;101401.00;;;;5034274;28;20229;-70
2023/09/15 15:59:43;;;;;;;3.45;0.40;;;24.60;99.90;28.40;101409.00;;;;5023734;28;20229;-70
2023/09/15 16:02:27;;;;;;;0.20;0.20;;;24.70;99.90;28.30;101382.00;;;;5011813;28;20198;-70
2023/09/15 16:05:01;;;;;;;0.10;0.10;;;24.60;99.90;28.90;101403.00;;;;5034294;28;20191;-70
2023/09/15 16:08:02;;;;;;;1.20;1.20;;;24.60;99.90;29.10;101396.00;;;;5040151;28;20213;-70
2023/09/15 16:10:37;;;;;;;0.20;0.20;;;24.90;99.90;29.00;101391.00;;;;5024419;28;20195;-70
2023/09/15 16:13:10;;;;;;;0.55;0.30;;;24.90;99.90;29.10;101390.00;;;;5039989;28;20348;-68
2023/09/15 16:15:37;;;;;;;0.10;0.10;;;24.90;99.90;29.50;101374.00;;;;5024176;28;20197;-68
2023/09/15 16:18:08;;;;;;;0.22;0.22;;;25.00;99.90;30.00;101375.00;;;;5042542;28;20183;-69
2023/09/15 16:20:35;;;;;;;0.10;0.10;;;25.20;99.90;29.00;101386.00;;;;5039129;28;20225;-68
2023/09/15 16:23:08;;;;;;;0.75;0.75;;;25.10;99.90;28.80;101396.00;;;;5040804;28;20285;-69
2023/09/15 16:25:42;;;;;;;0.68;0.68;;;24.90;99.90;29.20;101380.00;;;;5042219;28;20183;-70
2023/09/15 16:28:10;;;;;;;0.13;0.13;;;24.80;99.90;28.90;101391.00;;;;5041089;28;20616;-72
2023/09/15 16:30:41;;;;;;;0.20;0.20;;;24.80;99.90;28.80;101390.00;;;;5040801;28;20187;-69
2023/09/15 16:33:09;;;;;;;0.47;0.47;;;24.60;99.90;29.00;101391.00;;;;5039466;28;20236;-75
2023/09/15 16:35:37;;;;;;;0.63;0.60;;;24.70;99.90;29.50;101387.00;;;;5023810;28;20232;-67
2023/09/15 16:38:16;;;;;;;0.20;0.20;;;24.90;99.90;29.50;101384.00;;;;5023548;28;20293;-67
2023/09/15 16:40:45;;;;;;;0.10;0.10;;;25.10;99.90;29.50;101380.00;;;;5040770;28;20213;-66
2023/09/15 16:43:12;;;;;;;0.10;0.10;;;25.00;99.90;28.90;101400.00;;;;5040879;28;20252;-68
2023/09/15 16:45:44;;;;;;;0.52;0.52;;;24.80;99.90;29.30;101371.00;;;;5040930;28;20188;-68
2023/09/15 16:48:39;;;;;;;0.10;0.10;;;24.90;99.90;29.70;101377.00;;;;5023155;28;20189;-68
2023/09/15 16:51:25;;;;;;;0.10;0.10;;;25.00;99.90;29.80;101365.00;;;;5040412;28;20659;-68
2023/09/15 16:54:20;;;;;;;0.10;0.10;;;25.20;99.90;29.20;101361.00;;;;5041057;28;20186;-68
2023/09/15 16:56:56;;;;;;;0.38;0.38;;;25.00;99.90;29.00;101396.00;;;;5036109;28;20233;-69
2023/09/15 16:59:22;;;;;;;0.10;0.10;;;24.70;99.90;29.00;101392.00;;;;5039645;28;20652;-68
2023/09/15 17:01:52;;;;;;;0.10;0.10;;;24.70;99.90;29.00;101397.00;;;;5023565;28;20182;-68
2023/09/15 17:04:18;;;;;;;0.77;0.77;;;24.60;99.90;29.30;101398.00;;;;5039775;28;20179;-68
2023/09/15 17:06:47;;;;;;;0.15;0.15;;;24.60;99.90;29.20;101372.00;;;;5028170;28;20620;-68
2023/09/15 17:09:20;;;;;;;0.20;0.20;;;24.50;99.90;28.50;101393.00;;;;5040595;28;20217;-68
2023/09/15 17:12:07;;;;;;;0.10;0.10;;;24.40;99.90;28.90;101396.00;;;;5039206;28;20306;-68
2023/09/15 17:14:55;;;;;;;0.30;0.30;;;24.30;99.90;29.40;101389.00;;;;5040227;28;20280;-68
2023/09/15 17:18:11;;;;;;;1.17;1.17;;;24.40;99.90;28.80;101401.00;;;;5041111;28;20214;-68
2023/09/15 17:20:53;;;;;;;0.10;0.10;;;24.40;99.90;28.40;101416.00;;;;5022782;28;20198;-68
2023/09/15 17:23:44;;;;;;;0.10;0.10;;;24.30;99.90;28.20;101412.00;;;;5039324;28;20202;-68
2023/09/15 17:26:46;;;;;;;0.10;0.10;;;24.30;99.90;28.00;101416.00;;;;5039530;28;20184;-68
2023/09/15 17:29:37;;;;;;;0.10;0.10;;;23.90;99.90;28.20;101386.00;;;;5032599;28;20190;-68
2023/09/15 17:32:09;;;;;;;0.10;0.10;;;23.90;99.90;28.30;101416.00;;;;5048293;28;20225;-68
2023/09/15 17:34:40;;;;;;;0.10;0.10;;;23.90;99.90;28.50;101407.00;;;;5018906;28;20178;-68
2023/09/15 17:37:09;;;;;;;0.15;0.15;;;24.00;99.90;28.20;101411.00;;;;5015111;28;20203;-68
2023/09/15 17:39:38;;;;;;;0.60;0.30;;;23.90;99.90;27.60;101430.00;;;;5031510;28;20178;-68
2023/09/15 17:42:25;;;;;;;0.57;0.57;;;23.70;99.90;27.80;101428.00;;;;5015116;28;20273;-68
2023/09/15 17:44:54;;;;;;;0.10;0.10;;;23.60;99.90;27.10;101419.00;;;;5024984;28;20182;-68
2023/09/15 17:47:20;;;;;;;0.10;0.10;;;23.30;99.90;27.90;101391.00;;;;5031383;28;20179;-68
2023/09/15 17:50:07;;;;;;;0.10;0.10;;;23.40;99.90;28.10;101413.00;;;;5014687;28;20191;-68
2023/09/15 17:52:37;;;;;;;0.10;0.10;;;23.70;99.90;28.40;101408.00;;;;5021030;28;20214;-68
2023/09/15 17:55:41;;;;;;;0.30;0.30;;;23.70;99.90;28.20;101388.00;;;;5032064;28;20194;-68
2023/09/15 17:58:12;;;;;;;0.30;0.30;;;23.70;99.90;27.90;101417.00;;;;5039815;28;20830;-68
2023/09/15 18:00:41;;;;;;;0.20;0.20;;;23.60;99.90;27.80;101418.00;;;;5033375;28;20284;-71
2023/09/15 18:03:27;;;;;;;0.20;0.20;;;23.40;99.90;27.60;101405.00;;;;5014766;28;20194;-72
2023/09/15 18:06:20;;;;;;;0.20;0.20;;;23.40;99.90;27.80;101405.00;;;;5025054;28;20182;-69
2023/09/15 18:09:04;;;;;;;0.30;0.30;;;23.30;99.90;27.60;101396.00;;;;5017495;28;20198;-70
2023/09/15 18:11:34;;;;;;;0.50;0.50;;;23.20;99.90;27.60;101378.00;;;;5010704;28;20182;-70
2023/09/15 18:14:20;;;;;;;0.20;0.20;;;23.10;99.90;27.60;101396.00;;;;5032058;28;20645;-72
2023/09/15 18:16:47;;;;;;;0.20;0.20;;;23.10;99.90;27.00;101390.00;;;;5032997;28;20194;-68
2023/09/15 18:19:28;;;;;;;0.28;0.28;;;22.90;99.90;26.90;101379.00;;;;5031821;28;20187;-68
2023/09/15 18:21:55;;;;;;;0.20;0.20;;;22.80;99.90;27.20;101346.00;;;;5021471;28;20198;-68
2023/09/15 18:24:21;;;;;;;0.43;0.43;;;22.80;99.90;27.60;101371.00;;;;5037709;28;20273;-68
2023/09/15 18:26:53;;;;;;;0.20;0.20;;;22.90;99.90;27.70;101376.00;;;;5038959;28;20269;-68
2023/09/15 18:29:23;;;;;;;0.20;0.20;;;22.90;99.90;27.90;101375.00;;;;5038722;28;20712;-68
2023/09/15 18:31:54;;;;;;;0.20;0.20;;;23.20;99.90;27.90;101373.00;;;;5037083;28;20217;-68
2023/09/15 18:34:23;;;;;;;0.20;0.20;;;23.20;99.90;26.90;101384.00;;;;5037349;28;20545;-68
2023/09/15 18:37:09;;;;;;;0.20;0.20;;;22.90;99.90;27.40;101373.00;;;;5021039;28;20194;-68